createdAt,value
2023-01-02T00:00:54.650Z,2.87
2023-01-02T00:01:52.459Z,3.70
2023-01-02T00:02:49.196Z,3.87
2023-01-02T00:03:46.051Z,3.92
2023-01-02T00:04:42.972Z,3.97
2023-01-02T00:05:39.726Z,3.98
2023-01-02T00:06:37.678Z,3.92
2023-01-02T00:07:34.294Z,3.64
2023-01-02T00:08:31.022Z,3.48
2023-01-02T00:09:27.616Z,3.38
2023-01-02T00:10:24.419Z,3.41
2023-01-02T00:11:21.091Z,3.38
2023-01-02T00:12:17.698Z,3.27
2023-01-02T00:13:14.414Z,3.43
2023-01-02T00:14:11.113Z,3.95
2023-01-02T00:15:08.105Z,4.07
2023-01-02T00:16:05.238Z,4.06
2023-01-02T00:17:01.907Z,4.13
2023-01-02T00:17:58.430Z,4.04
2023-01-02T00:18:55.044Z,4.12
2023-01-02T00:19:51.742Z,4.06
2023-01-02T00:20:48.309Z,4.22
2023-01-02T00:21:44.921Z,4.17
2023-01-02T00:22:41.485Z,4.05
2023-01-02T00:23:38.256Z,3.97
2023-01-02T00:24:34.821Z,3.88
2023-01-02T00:25:34.787Z,3.47
2023-01-02T00:26:31.410Z,3.40
2023-01-02T00:27:28.029Z,3.38
2023-01-02T00:28:24.818Z,3.34
2023-01-02T00:29:21.407Z,3.49
2023-01-02T00:30:18.262Z,3.60
2023-01-02T00:31:14.839Z,3.70
2023-01-02T00:32:11.538Z,3.75
2023-01-02T00:33:08.143Z,3.74
2023-01-02T00:34:04.788Z,3.56
2023-01-02T00:35:01.347Z,3.23
2023-01-02T00:35:57.938Z,3.24
2023-01-02T00:36:54.562Z,3.40
2023-01-02T00:37:52.521Z,3.67
2023-01-02T00:38:49.240Z,3.67
2023-01-02T00:39:45.812Z,3.76
2023-01-02T00:40:42.500Z,3.62
2023-01-02T00:41:39.169Z,3.23
2023-01-02T00:42:35.774Z,3.19
2023-01-02T00:43:32.587Z,3.43
2023-01-02T00:44:29.143Z,2.92
2023-01-02T00:45:25.948Z,3.61
2023-01-02T00:46:23.389Z,3.34
2023-01-02T00:47:20.061Z,3.31
2023-01-02T00:48:16.619Z,3.28
2023-01-02T00:49:13.177Z,3.21
2023-01-02T00:50:09.717Z,3.25
2023-01-02T00:51:06.534Z,3.20
2023-01-02T00:52:03.333Z,3.20
2023-01-02T00:52:59.901Z,3.23
2023-01-02T00:53:56.512Z,2.92
2023-01-02T00:54:53.061Z,3.42
2023-01-02T00:55:49.640Z,3.42
2023-01-02T00:56:46.199Z,3.04
2023-01-02T00:57:42.774Z,3.04
2023-01-02T00:58:39.382Z,3.38
2023-01-02T00:59:35.929Z,3.47
2023-01-02T01:00:32.880Z,3.45
2023-01-02T01:01:29.655Z,3.46
2023-01-02T01:02:26.467Z,2.73
2023-01-02T01:03:23.153Z,3.18
2023-01-02T01:04:19.764Z,3.32
2023-01-02T01:05:16.336Z,3.21
2023-01-02T01:06:14.545Z,3.47
2023-01-02T01:07:11.264Z,3.39
2023-01-02T01:08:08.177Z,3.38
2023-01-02T01:09:04.731Z,3.02
2023-01-02T01:10:01.525Z,2.99
2023-01-02T01:10:58.104Z,3.00
2023-01-02T01:11:55.253Z,2.91
2023-01-02T01:12:52.247Z,2.81
2023-01-02T01:13:48.867Z,2.84
2023-01-02T01:14:45.475Z,2.95
2023-01-02T01:15:42.128Z,2.91
2023-01-02T01:16:38.910Z,3.13
2023-01-02T01:17:35.613Z,3.15
2023-01-02T01:18:32.174Z,3.18
2023-01-02T01:19:36.180Z,2.97
2023-01-02T01:20:32.825Z,2.73
2023-01-02T01:21:29.463Z,2.88
2023-01-02T01:22:26.093Z,2.94
2023-01-02T01:23:23.323Z,1.66
2023-01-02T01:24:19.950Z,2.98
2023-01-02T01:25:16.785Z,2.88
2023-01-02T01:26:13.774Z,2.79
2023-01-02T01:27:10.438Z,2.69
2023-01-02T01:28:07.052Z,2.86
2023-01-02T01:29:03.676Z,3.07
2023-01-02T01:30:00.322Z,3.00
2023-01-02T01:31:27.431Z,3.25
2023-01-02T01:32:24.078Z,3.24
2023-01-02T01:33:20.698Z,3.16
2023-01-02T01:34:17.545Z,3.16
2023-01-02T01:35:14.198Z,3.02
2023-01-02T01:36:23.862Z,3.14
2023-01-02T01:37:20.390Z,3.20
2023-01-02T01:38:16.985Z,3.07
2023-01-02T01:39:13.641Z,2.98
2023-01-02T01:40:10.536Z,2.97
2023-01-02T01:41:08.487Z,2.94
2023-01-02T01:42:05.380Z,2.97
2023-01-02T01:43:01.943Z,3.11
2023-01-02T01:44:00.516Z,2.02
2023-01-02T01:44:57.140Z,2.91
2023-01-02T01:45:53.800Z,3.06
2023-01-02T01:46:50.406Z,3.19
2023-01-02T01:47:51.569Z,3.05
2023-01-02T01:48:53.390Z,2.87
2023-01-02T01:49:58.555Z,3.25
2023-01-02T01:50:58.139Z,3.24
2023-01-02T01:52:00.990Z,3.14
2023-01-02T01:53:03.761Z,3.02
2023-01-02T01:54:07.197Z,3.00
2023-01-02T01:55:12.813Z,2.90
2023-01-02T01:56:12.206Z,2.80
2023-01-02T01:57:33.557Z,3.08
2023-01-02T01:58:41.885Z,3.50
2023-01-02T01:59:40.216Z,3.60
2023-01-02T02:00:37.437Z,3.46
2023-01-02T02:01:34.274Z,3.63
2023-01-02T02:02:33.422Z,3.68
2023-01-02T02:03:32.227Z,3.96
2023-01-02T02:04:28.887Z,3.90
2023-01-02T02:05:29.383Z,4.05
2023-01-02T02:06:25.972Z,3.83
2023-01-02T02:07:23.285Z,3.79
2023-01-02T02:08:37.595Z,3.77
2023-01-02T02:09:49.914Z,3.77
2023-01-02T02:10:47.527Z,3.58
2023-01-02T02:11:44.884Z,3.25
2023-01-02T02:12:41.563Z,3.27
2023-01-02T02:13:38.430Z,3.17
2023-01-02T02:14:34.982Z,3.03
2023-01-02T02:15:43.731Z,3.08
2023-01-02T02:16:46.462Z,2.98
2023-01-02T02:17:56.387Z,2.89
2023-01-02T02:19:11.190Z,3.17
2023-01-02T02:20:33.789Z,3.23
2023-01-02T02:21:54.453Z,3.33
2023-01-02T02:23:18.004Z,3.40
2023-01-02T02:24:40.669Z,3.61
2023-01-02T02:26:13.670Z,3.59
2023-01-02T02:27:28.589Z,3.43
2023-01-02T02:28:43.412Z,3.59
2023-01-02T02:29:50.180Z,3.45
2023-01-02T02:30:59.707Z,3.47
2023-01-02T02:32:15.208Z,3.52
2023-01-02T02:33:30.247Z,3.51
2023-01-02T02:34:45.711Z,3.42
2023-01-02T02:36:19.460Z,3.43
2023-01-02T02:37:25.518Z,3.17
2023-01-02T02:39:00.967Z,2.91
2023-01-02T02:40:26.211Z,2.79
2023-01-02T02:41:36.106Z,2.79
2023-01-02T02:42:48.158Z,3.01
2023-01-02T02:44:32.459Z,3.13
2023-01-02T02:45:54.992Z,2.98
2023-01-02T02:47:09.766Z,2.95
2023-01-02T02:48:28.110Z,2.71
2023-01-02T02:49:27.424Z,2.62
2023-01-02T02:50:42.853Z,2.62
2023-01-02T02:51:56.741Z,2.62
2023-01-02T02:53:09.129Z,2.52
2023-01-02T02:54:12.756Z,2.47
2023-01-02T02:55:17.044Z,2.01
2023-01-02T02:56:16.944Z,2.39
2023-01-02T02:57:15.352Z,2.42
2023-01-02T02:58:14.650Z,2.44
2023-01-02T02:59:11.857Z,2.53
2023-01-02T03:00:14.378Z,2.59
2023-01-02T03:01:15.886Z,2.63
2023-01-02T03:02:17.091Z,2.56
2023-01-02T03:03:19.701Z,2.58
2023-01-02T03:04:21.516Z,2.75
2023-01-02T03:05:48.799Z,2.95
2023-01-02T03:07:02.746Z,2.92
2023-01-02T03:08:10.952Z,2.90
2023-01-02T03:09:51.969Z,2.59
2023-01-02T03:11:01.516Z,2.62
2023-01-02T03:12:06.905Z,2.15
2023-01-02T03:13:41.048Z,1.90
2023-01-02T03:15:05.872Z,2.17
2023-01-02T03:16:30.291Z,2.29
2023-01-02T03:17:26.908Z,2.27
2023-01-02T03:18:29.347Z,2.13
2023-01-02T03:19:41.906Z,2.10
2023-01-02T03:20:47.299Z,2.20
2023-01-02T03:21:58.161Z,2.25
2023-01-02T03:23:04.716Z,2.17
2023-01-02T03:24:08.777Z,2.18
2023-01-02T03:25:10.400Z,2.02
2023-01-02T03:26:07.508Z,1.94
2023-01-02T03:27:09.863Z,2.12
2023-01-02T03:28:09.983Z,2.07
2023-01-02T03:29:41.352Z,2.02
2023-01-02T03:30:41.165Z,1.84
2023-01-02T03:31:40.757Z,2.14
2023-01-02T03:32:43.743Z,2.07
2023-01-02T03:33:44.923Z,1.89
2023-01-02T03:34:45.779Z,1.98
2023-01-02T03:36:04.634Z,2.12
2023-01-02T03:37:08.373Z,1.94
2023-01-02T03:38:10.163Z,2.01
2023-01-02T03:39:18.713Z,2.13
2023-01-02T03:40:20.625Z,2.11
2023-01-02T03:41:38.013Z,1.88
2023-01-02T03:42:40.595Z,1.93
2023-01-02T03:43:40.994Z,2.01
2023-01-02T03:44:56.061Z,1.98
2023-01-02T03:46:04.688Z,1.77
2023-01-02T03:47:41.638Z,1.60
2023-01-02T03:48:41.142Z,1.97
2023-01-02T03:49:44.899Z,2.12
2023-01-02T03:50:50.036Z,2.16
2023-01-02T03:51:46.932Z,2.24
2023-01-02T03:52:43.693Z,2.17
2023-01-02T03:53:41.193Z,2.21
2023-01-02T03:54:38.555Z,2.22
2023-01-02T03:55:40.223Z,2.51
2023-01-02T03:56:55.345Z,2.59
2023-01-02T03:58:20.736Z,2.95
2023-01-02T03:59:43.134Z,3.11
2023-01-02T04:01:05.106Z,3.15
2023-01-02T04:02:24.904Z,3.28
2023-01-02T04:03:26.199Z,2.91
2023-01-02T04:04:37.147Z,2.41
2023-01-02T04:05:45.832Z,2.24
2023-01-02T04:06:48.281Z,2.22
2023-01-02T04:07:51.763Z,2.20
2023-01-02T04:08:56.167Z,1.93
2023-01-02T04:09:53.384Z,2.37
2023-01-02T04:10:58.237Z,2.48
2023-01-02T04:12:00.329Z,2.48
2023-01-02T04:13:02.609Z,2.43
2023-01-02T04:14:03.182Z,2.28
2023-01-02T04:15:05.111Z,1.87
2023-01-02T04:16:04.401Z,2.14
2023-01-02T04:17:04.950Z,2.38
2023-01-02T04:18:08.566Z,2.38
2023-01-02T04:19:12.483Z,2.20
2023-01-02T04:20:14.613Z,2.34
2023-01-02T04:21:17.538Z,2.21
2023-01-02T04:22:32.004Z,2.19
2023-01-02T04:23:42.779Z,2.20
2023-01-02T04:24:44.820Z,2.56
2023-01-02T04:25:47.822Z,2.44
2023-01-02T04:27:08.124Z,2.11
2023-01-02T04:28:25.633Z,2.19
2023-01-02T04:29:22.407Z,2.25
2023-01-02T04:30:19.273Z,2.27
2023-01-02T04:31:15.973Z,2.16
2023-01-02T04:32:20.336Z,1.99
2023-01-02T04:33:19.837Z,1.84
2023-01-02T04:34:18.521Z,1.99
2023-01-02T04:35:19.671Z,2.17
2023-01-02T04:36:16.768Z,2.01
2023-01-02T04:37:28.527Z,2.21
2023-01-02T04:38:25.084Z,2.18
2023-01-02T04:39:24.256Z,2.07
2023-01-02T04:40:23.644Z,2.19
2023-01-02T04:41:29.201Z,2.13
2023-01-02T04:42:25.992Z,2.09
2023-01-02T04:43:22.663Z,2.07
2023-01-02T04:44:19.375Z,2.07
2023-01-02T04:45:16.391Z,2.32
2023-01-02T04:46:13.096Z,2.40
2023-01-02T04:47:09.775Z,2.41
2023-01-02T04:48:06.480Z,2.59
2023-01-02T04:49:03.246Z,2.69
2023-01-02T04:49:59.813Z,2.55
2023-01-02T04:50:56.548Z,2.64
2023-01-02T04:51:53.176Z,2.75
2023-01-02T04:52:49.786Z,2.67
2023-01-02T04:53:50.866Z,2.57
2023-01-02T04:54:47.527Z,2.43
2023-01-02T04:55:44.055Z,2.50
2023-01-02T04:56:40.640Z,2.23
2023-01-02T04:57:38.242Z,1.90
2023-01-02T04:58:34.891Z,1.73
2023-01-02T04:59:31.582Z,2.18
2023-01-02T05:00:28.229Z,2.22
2023-01-02T05:01:24.902Z,2.24
2023-01-02T05:02:21.744Z,2.15
2023-01-02T05:03:18.499Z,2.28
2023-01-02T05:04:15.186Z,2.31
2023-01-02T05:05:11.851Z,2.38
2023-01-02T05:06:09.310Z,2.34
2023-01-02T05:07:06.852Z,2.23
2023-01-02T05:08:03.587Z,2.26
2023-01-02T05:09:00.239Z,2.19
2023-01-02T05:09:56.805Z,2.22
2023-01-02T05:10:53.455Z,2.33
2023-01-02T05:11:50.217Z,2.26
2023-01-02T05:12:46.882Z,2.39
2023-01-02T05:13:44.262Z,2.48
2023-01-02T05:14:40.873Z,2.69
2023-01-02T05:15:37.519Z,2.56
2023-01-02T05:16:34.308Z,2.47
2023-01-02T05:17:35.584Z,2.16
2023-01-02T05:18:32.474Z,2.14
2023-01-02T05:19:29.061Z,2.17
2023-01-02T05:20:25.749Z,2.31
2023-01-02T05:21:40.915Z,2.34
2023-01-02T05:23:00.001Z,2.08
2023-01-02T05:23:58.468Z,2.28
2023-01-02T05:24:55.194Z,2.24
2023-01-02T05:25:51.787Z,2.17
2023-01-02T05:26:48.484Z,2.26
2023-01-02T05:27:45.860Z,2.32
2023-01-02T05:28:42.563Z,2.09
2023-01-02T05:29:39.143Z,2.28
2023-01-02T05:30:38.466Z,2.12
2023-01-02T05:31:35.113Z,2.20
2023-01-02T05:32:31.787Z,2.09
2023-01-02T05:33:28.478Z,2.07
2023-01-02T05:34:25.166Z,2.02
2023-01-02T05:35:25.642Z,1.97
2023-01-02T05:36:26.648Z,2.14
2023-01-02T05:37:23.529Z,2.21
2023-01-02T05:38:20.116Z,2.18
2023-01-02T05:39:16.909Z,2.18
2023-01-02T05:40:13.543Z,2.13
2023-01-02T05:41:10.157Z,2.08
2023-01-02T05:42:06.776Z,2.11
2023-01-02T05:43:03.382Z,2.07
2023-01-02T05:43:59.952Z,2.07
2023-01-02T05:44:56.839Z,2.22
2023-01-02T05:45:53.509Z,1.96
2023-01-02T05:46:50.142Z,2.11
2023-01-02T05:47:46.748Z,2.18
2023-01-02T05:48:44.281Z,2.32
2023-01-02T05:49:40.983Z,2.36
2023-01-02T05:50:37.646Z,2.38
2023-01-02T05:51:34.677Z,2.53
2023-01-02T05:52:31.281Z,2.34
2023-01-02T05:53:28.040Z,2.16
2023-01-02T05:54:24.720Z,2.27
2023-01-02T05:55:21.342Z,2.36
2023-01-02T05:56:18.818Z,2.63
2023-01-02T05:57:16.033Z,2.44
2023-01-02T05:58:12.604Z,2.35
2023-01-02T05:59:09.280Z,2.50
2023-01-02T06:00:06.321Z,2.50
2023-01-02T06:01:11.731Z,2.46
2023-01-02T06:02:08.497Z,2.42
2023-01-02T06:03:05.314Z,2.46
2023-01-02T06:04:02.426Z,2.34
2023-01-02T06:04:59.113Z,2.58
2023-01-02T06:05:55.763Z,2.35
2023-01-02T06:06:52.329Z,2.42
2023-01-02T06:07:48.899Z,2.40
2023-01-02T06:08:45.476Z,2.42
2023-01-02T06:09:42.301Z,2.29
2023-01-02T06:10:38.925Z,2.39
2023-01-02T06:11:36.587Z,2.23
2023-01-02T06:12:33.231Z,2.19
2023-01-02T06:13:30.594Z,2.36
2023-01-02T06:14:27.535Z,2.35
2023-01-02T06:15:24.777Z,2.16
2023-01-02T06:16:22.455Z,2.31
2023-01-02T06:17:19.138Z,2.23
2023-01-02T06:18:15.736Z,2.30
2023-01-02T06:19:12.317Z,2.33
2023-01-02T06:20:09.584Z,2.33
2023-01-02T06:21:12.228Z,2.30
2023-01-02T06:22:08.849Z,2.22
2023-01-02T06:23:05.436Z,2.39
2023-01-02T06:24:02.132Z,2.38
2023-01-02T06:24:58.683Z,2.45
2023-01-02T06:25:55.769Z,2.46
2023-01-02T06:26:52.409Z,2.49
2023-01-02T06:27:49.012Z,2.58
2023-01-02T06:28:49.012Z,2.63
2023-01-02T06:29:45.547Z,2.65
2023-01-02T06:30:42.153Z,2.70
2023-01-02T06:31:39.979Z,2.80
2023-01-02T06:32:37.196Z,2.91
2023-01-02T06:33:33.888Z,2.50
2023-01-02T06:34:30.476Z,2.84
2023-01-02T06:35:27.172Z,2.90
2023-01-02T06:36:24.255Z,2.96
2023-01-02T06:37:20.976Z,2.95
2023-01-02T06:38:17.599Z,3.03
2023-01-02T06:39:14.226Z,3.10
2023-01-02T06:40:13.981Z,3.23
2023-01-02T06:41:10.677Z,3.34
2023-01-02T06:42:07.197Z,3.31
2023-01-02T06:43:03.811Z,3.36
2023-01-02T06:44:00.402Z,3.49
2023-01-02T06:44:56.995Z,3.43
2023-01-02T06:45:53.853Z,3.49
2023-01-02T06:46:50.526Z,3.43
2023-01-02T06:47:47.125Z,3.42
2023-01-02T06:48:44.192Z,3.48
2023-01-02T06:49:40.811Z,3.65
2023-01-02T06:50:37.414Z,3.65
2023-01-02T06:51:34.001Z,3.63
2023-01-02T06:52:30.568Z,3.75
2023-01-02T06:53:27.321Z,3.81
2023-01-02T06:54:23.933Z,3.77
2023-01-02T06:55:20.639Z,3.79
2023-01-02T06:56:18.584Z,3.72
2023-01-02T06:57:15.243Z,3.63
2023-01-02T06:58:17.580Z,3.63
2023-01-02T06:59:15.918Z,3.56
2023-01-02T07:00:13.176Z,3.60
2023-01-02T07:01:13.780Z,3.68
2023-01-02T07:02:13.908Z,3.62
2023-01-02T07:03:10.617Z,3.71
2023-01-02T07:04:07.219Z,3.70
2023-01-02T07:05:04.330Z,3.67
2023-01-02T07:06:06.776Z,3.53
2023-01-02T07:07:04.267Z,3.93
2023-01-02T07:08:00.962Z,4.01
2023-01-02T07:08:57.526Z,3.89
2023-01-02T07:09:54.090Z,3.93
2023-01-02T07:10:53.041Z,3.99
2023-01-02T07:11:50.018Z,4.16
2023-01-02T07:12:46.626Z,4.28
2023-01-02T07:13:44.316Z,4.28
2023-01-02T07:14:40.952Z,3.78
2023-01-02T07:15:37.680Z,3.97
2023-01-02T07:16:34.349Z,4.12
2023-01-02T07:17:32.440Z,4.19
2023-01-02T07:18:29.048Z,4.25
2023-01-02T07:19:25.681Z,4.45
2023-01-02T07:20:22.291Z,4.34
2023-01-02T07:21:18.909Z,4.31
2023-01-02T07:22:15.449Z,4.32
2023-01-02T07:23:12.097Z,4.39
2023-01-02T07:24:17.759Z,4.36
2023-01-02T07:25:14.356Z,4.52
2023-01-02T07:26:11.671Z,4.50
2023-01-02T07:27:08.300Z,4.46
2023-01-02T07:28:05.021Z,4.00
2023-01-02T07:29:01.710Z,4.56
2023-01-02T07:29:58.434Z,4.59
2023-01-02T07:30:59.700Z,4.66
2023-01-02T07:31:56.389Z,4.62
2023-01-02T07:32:53.609Z,4.72
2023-01-02T07:33:50.333Z,4.79
2023-01-02T07:34:46.974Z,4.80
2023-01-02T07:35:44.237Z,4.68
2023-01-02T07:36:40.833Z,4.84
2023-01-02T07:37:37.597Z,4.94
2023-01-02T07:38:35.187Z,4.87
2023-01-02T07:39:31.741Z,5.09
2023-01-02T07:40:32.085Z,5.06
2023-01-02T07:41:29.135Z,4.76
2023-01-02T07:42:25.728Z,4.95
2023-01-02T07:43:22.424Z,4.68
2023-01-02T07:44:19.067Z,4.96
2023-01-02T07:45:15.780Z,4.97
2023-01-02T07:46:14.289Z,5.13
2023-01-02T07:47:10.952Z,5.38
2023-01-02T07:48:07.502Z,5.52
2023-01-02T07:49:04.092Z,5.51
2023-01-02T07:50:00.702Z,5.35
2023-01-02T07:51:05.189Z,5.14
2023-01-02T07:52:01.800Z,5.13
2023-01-02T07:52:58.431Z,4.98
2023-01-02T07:53:55.613Z,5.25
2023-01-02T07:54:52.206Z,5.26
2023-01-02T07:55:54.375Z,5.06
2023-01-02T07:56:52.138Z,5.41
2023-01-02T07:57:48.736Z,4.58
2023-01-02T07:58:45.341Z,4.93
2023-01-02T07:59:44.947Z,4.91
2023-01-02T08:00:41.528Z,4.98
2023-01-02T08:01:38.249Z,4.87
2023-01-02T08:02:34.968Z,4.87
2023-01-02T08:03:31.963Z,4.78
2023-01-02T08:04:28.701Z,4.55
2023-01-02T08:05:25.577Z,4.96
2023-01-02T08:06:22.277Z,5.53
2023-01-02T08:07:19.035Z,5.61
2023-01-02T08:08:15.627Z,5.31
2023-01-02T08:09:12.187Z,5.09
2023-01-02T08:10:08.914Z,5.00
2023-01-02T08:11:11.678Z,5.54
2023-01-02T08:12:08.240Z,5.54
2023-01-02T08:13:08.084Z,5.73
2023-01-02T08:14:05.192Z,5.48
2023-01-02T08:15:02.029Z,5.58
2023-01-02T08:16:20.332Z,5.32
2023-01-02T08:17:16.985Z,4.90
2023-01-02T08:18:13.601Z,4.91
2023-01-02T08:19:10.254Z,4.86
2023-01-02T08:20:08.526Z,4.97
2023-01-02T08:21:06.219Z,4.85
2023-01-02T08:22:02.803Z,4.71
2023-01-02T08:22:59.351Z,4.95
2023-01-02T08:23:55.981Z,4.61
2023-01-02T08:24:52.615Z,4.86
2023-01-02T08:25:54.080Z,4.93
2023-01-02T08:26:53.961Z,5.03
2023-01-02T08:27:50.563Z,4.75
2023-01-02T08:28:47.211Z,4.99
2023-01-02T08:29:43.957Z,4.91
2023-01-02T08:30:41.266Z,5.00
2023-01-02T08:31:43.471Z,4.88
2023-01-02T08:32:40.864Z,5.25
2023-01-02T08:33:37.653Z,5.04
2023-01-02T08:34:35.119Z,5.03
2023-01-02T08:35:38.512Z,5.13
2023-01-02T08:36:35.760Z,5.28
2023-01-02T08:37:32.372Z,5.60
2023-01-02T08:38:29.008Z,5.69
2023-01-02T08:39:25.633Z,5.94
2023-01-02T08:40:22.555Z,5.44
2023-01-02T08:41:36.947Z,5.27
2023-01-02T08:42:33.579Z,5.00
2023-01-02T08:43:34.399Z,5.07
2023-01-02T08:44:30.970Z,4.96
2023-01-02T08:45:28.072Z,4.74
2023-01-02T08:46:24.705Z,5.16
2023-01-02T08:47:21.309Z,5.46
2023-01-02T08:48:21.017Z,5.44
2023-01-02T08:49:18.487Z,5.79
2023-01-02T08:50:15.154Z,6.18
2023-01-02T08:51:11.796Z,6.18
2023-01-02T08:52:08.437Z,6.06
2023-01-02T08:53:10.777Z,6.35
2023-01-02T08:54:09.333Z,5.99
2023-01-02T08:55:06.559Z,5.69
2023-01-02T08:56:29.224Z,5.79
2023-01-02T08:57:25.867Z,5.83
2023-01-02T08:58:22.531Z,6.12
2023-01-02T08:59:19.539Z,6.67
2023-01-02T09:00:16.471Z,6.61
2023-01-02T09:01:13.107Z,6.57
2023-01-02T09:02:14.363Z,6.77
2023-01-02T09:03:11.158Z,6.25
2023-01-02T09:04:12.342Z,5.95
2023-01-02T09:05:09.902Z,6.19
2023-01-02T09:06:06.534Z,6.23
2023-01-02T09:07:03.170Z,6.37
2023-01-02T09:08:01.869Z,6.13
2023-01-02T09:08:59.660Z,6.89
2023-01-02T09:09:56.256Z,7.30
2023-01-02T09:10:52.924Z,7.17
2023-01-02T09:11:51.983Z,6.79
2023-01-02T09:12:48.630Z,6.71
2023-01-02T09:13:45.346Z,6.85
2023-01-02T09:14:42.067Z,6.99
2023-01-02T09:15:38.769Z,6.91
2023-01-02T09:16:35.427Z,6.85
2023-01-02T09:17:31.981Z,6.83
2023-01-02T09:18:29.682Z,6.43
2023-01-02T09:19:27.018Z,6.76
2023-01-02T09:20:23.966Z,6.36
2023-01-02T09:21:20.560Z,6.50
2023-01-02T09:22:17.193Z,6.46
2023-01-02T09:23:13.809Z,6.59
2023-01-02T09:24:10.852Z,6.94
2023-01-02T09:25:08.003Z,6.71
2023-01-02T09:26:10.947Z,7.02
2023-01-02T09:27:07.539Z,7.15
2023-01-02T09:28:04.311Z,7.05
2023-01-02T09:29:01.117Z,7.15
2023-01-02T09:29:57.759Z,6.77
2023-01-02T09:30:55.043Z,6.75
2023-01-02T09:31:51.716Z,6.50
2023-01-02T09:32:50.734Z,7.13
2023-01-02T09:33:48.274Z,7.84
2023-01-02T09:34:50.301Z,7.78
2023-01-02T09:35:46.878Z,7.23
2023-01-02T09:36:43.531Z,7.40
2023-01-02T09:37:40.161Z,7.10
2023-01-02T09:38:37.052Z,7.32
2023-01-02T09:39:33.621Z,8.09
2023-01-02T09:40:32.018Z,7.67
2023-01-02T09:41:51.740Z,8.28
2023-01-02T09:42:51.770Z,7.74
2023-01-02T09:44:04.615Z,7.70
2023-01-02T09:45:08.569Z,7.86
2023-01-02T09:46:13.592Z,8.37
2023-01-02T09:47:25.903Z,7.51
2023-01-02T09:48:22.601Z,7.20
2023-01-02T09:49:26.239Z,7.59
2023-01-02T09:50:28.004Z,7.73
2023-01-02T09:51:24.634Z,7.52
2023-01-02T09:52:38.296Z,7.28
2023-01-02T09:53:35.396Z,7.43
2023-01-02T09:54:33.791Z,7.93
2023-01-02T09:55:43.415Z,7.84
2023-01-02T09:56:42.417Z,7.75
2023-01-02T09:58:06.100Z,7.58
2023-01-02T09:59:10.719Z,7.60
2023-01-02T10:00:17.101Z,7.81
2023-01-02T10:01:24.804Z,8.34
2023-01-02T10:02:40.252Z,8.08
2023-01-02T10:04:14.149Z,7.92
2023-01-02T10:05:28.976Z,7.94
2023-01-02T10:06:35.740Z,8.46
2023-01-02T10:07:47.884Z,8.43
2023-01-02T10:08:50.473Z,8.08
2023-01-02T10:09:59.896Z,7.99
2023-01-02T10:11:08.605Z,8.11
2023-01-02T10:12:25.305Z,7.81
2023-01-02T10:14:08.360Z,7.73
2023-01-02T10:14:59.567Z,7.67
2023-01-02T10:16:00.592Z,7.46
2023-01-02T10:17:00.461Z,7.37
2023-01-02T10:18:15.278Z,7.29
2023-01-02T10:19:20.145Z,7.40
2023-01-02T10:20:45.688Z,7.62
2023-01-02T10:21:45.379Z,7.58
2023-01-02T10:22:51.448Z,7.29
2023-01-02T10:24:14.219Z,7.36
2023-01-02T10:25:26.821Z,7.54
2023-01-02T10:26:28.281Z,7.44
2023-01-02T10:27:32.921Z,7.92
2023-01-02T10:28:49.352Z,7.84
2023-01-02T10:29:54.429Z,8.05
2023-01-02T10:31:05.408Z,8.58
2023-01-02T10:32:15.308Z,8.31
2023-01-02T10:33:32.389Z,8.66
2023-01-02T10:34:45.314Z,9.18
2023-01-02T10:35:45.790Z,8.82
2023-01-02T10:36:44.108Z,8.51
2023-01-02T10:37:40.747Z,8.46
2023-01-02T10:38:39.448Z,8.95
2023-01-02T10:39:36.098Z,8.87
2023-01-02T10:40:33.837Z,8.92
2023-01-02T10:41:31.613Z,8.87
2023-01-02T10:42:31.225Z,8.80
2023-01-02T10:43:29.398Z,9.17
2023-01-02T10:44:29.975Z,9.41
2023-01-02T10:45:26.724Z,9.04
2023-01-02T10:46:23.453Z,9.05
2023-01-02T10:47:37.849Z,9.17
2023-01-02T10:48:37.396Z,9.11
2023-01-02T10:49:37.803Z,8.84
2023-01-02T10:50:42.021Z,9.32
2023-01-02T10:51:45.678Z,9.21
2023-01-02T10:53:04.765Z,9.49
2023-01-02T10:54:09.576Z,9.35
2023-01-02T10:55:06.557Z,9.51
2023-01-02T10:56:05.673Z,9.47
2023-01-02T10:57:02.300Z,9.87
2023-01-02T10:58:05.252Z,9.78
2023-01-02T10:59:02.907Z,9.75
2023-01-02T11:00:01.325Z,9.57
2023-01-02T11:01:05.945Z,9.56
2023-01-02T11:02:02.686Z,9.20
2023-01-02T11:03:12.358Z,9.27
2023-01-02T11:04:13.132Z,9.70
2023-01-02T11:05:20.200Z,10.43
2023-01-02T11:06:28.226Z,10.51
2023-01-02T11:07:27.096Z,10.41
2023-01-02T11:08:34.339Z,10.00
2023-01-02T11:09:35.980Z,10.26
2023-01-02T11:10:35.092Z,9.64
2023-01-02T11:11:32.631Z,9.88
2023-01-02T11:12:29.245Z,9.93
2023-01-02T11:13:25.817Z,10.01
2023-01-02T11:14:34.100Z,10.28
2023-01-02T11:15:34.703Z,10.54
2023-01-02T11:16:33.189Z,10.58
2023-01-02T11:17:30.718Z,10.41
2023-01-02T11:18:31.160Z,10.84
2023-01-02T11:19:30.026Z,10.44
2023-01-02T11:20:33.784Z,10.41
2023-01-02T11:21:33.149Z,9.88
2023-01-02T11:22:36.259Z,9.98
2023-01-02T11:23:39.804Z,10.17
2023-01-02T11:25:05.630Z,10.30
2023-01-02T11:26:04.467Z,10.63
2023-01-02T11:27:02.788Z,10.60
2023-01-02T11:28:00.905Z,10.98
2023-01-02T11:29:07.142Z,11.09
2023-01-02T11:30:09.657Z,10.69
2023-01-02T11:31:10.081Z,10.96
2023-01-02T11:32:06.914Z,10.48
2023-01-02T11:33:19.384Z,10.58
2023-01-02T11:34:22.499Z,11.00
2023-01-02T11:35:36.450Z,11.26
2023-01-02T11:36:33.334Z,10.91
2023-01-02T11:37:29.974Z,10.65
2023-01-02T11:38:39.843Z,10.18
2023-01-02T11:39:36.631Z,10.65
2023-01-02T11:40:33.692Z,10.13
2023-01-02T11:42:08.159Z,10.17
2023-01-02T11:43:29.334Z,10.62
2023-01-02T11:44:31.662Z,10.87
2023-01-02T11:45:30.788Z,10.47
2023-01-02T11:46:29.577Z,10.75
2023-01-02T11:47:32.868Z,10.63
2023-01-02T11:48:29.777Z,10.77
2023-01-02T11:49:31.908Z,10.34
2023-01-02T11:50:31.726Z,10.92
2023-01-02T11:51:29.974Z,11.01
2023-01-02T11:52:34.849Z,10.79
2023-01-02T11:53:40.647Z,11.21
2023-01-02T11:54:44.230Z,11.13
2023-01-02T11:55:43.827Z,11.31
2023-01-02T11:56:44.203Z,10.98
2023-01-02T11:57:49.982Z,11.12
2023-01-02T11:59:00.608Z,10.88
2023-01-02T12:00:01.463Z,11.08
2023-01-02T12:01:22.722Z,11.03
2023-01-02T12:02:36.469Z,11.07
2023-01-02T12:03:34.746Z,10.72
2023-01-02T12:04:31.795Z,10.87
2023-01-02T12:05:37.323Z,11.04
2023-01-02T12:06:39.701Z,10.82
2023-01-02T12:07:44.266Z,10.43
2023-01-02T12:09:06.959Z,10.40
2023-01-02T12:10:50.395Z,10.77
2023-01-02T12:11:46.938Z,10.96
2023-01-02T12:12:43.429Z,11.24
2023-01-02T12:13:58.725Z,11.53
2023-01-02T12:15:07.106Z,11.22
2023-01-02T12:16:41.990Z,10.93
2023-01-02T12:17:53.448Z,11.29
2023-01-02T12:19:02.419Z,11.43
2023-01-02T12:20:21.078Z,11.17
2023-01-02T12:21:57.120Z,11.16
2023-01-02T12:23:11.227Z,11.63
2023-01-02T12:24:07.806Z,11.20
2023-01-02T12:25:28.799Z,11.31
2023-01-02T12:26:42.078Z,11.12
2023-01-02T12:27:46.807Z,11.53
2023-01-02T12:29:05.252Z,11.41
2023-01-02T12:30:15.219Z,10.98
2023-01-02T12:31:30.143Z,10.93
2023-01-02T12:32:54.758Z,11.10
2023-01-02T12:34:23.694Z,11.20
2023-01-02T12:35:56.794Z,10.76
2023-01-02T12:37:23.548Z,11.00
2023-01-02T12:38:33.071Z,10.60
2023-01-02T12:40:26.873Z,10.81
2023-01-02T12:41:33.385Z,10.98
2023-01-02T12:43:09.178Z,11.24
2023-01-02T12:44:17.615Z,11.27
2023-01-02T12:45:35.259Z,11.23
2023-01-02T12:46:40.968Z,11.32
2023-01-02T12:47:47.202Z,11.65
2023-01-02T12:49:11.301Z,11.41
2023-01-02T12:50:28.143Z,11.44
2023-01-02T12:51:47.575Z,11.56
2023-01-02T12:53:03.197Z,11.13
2023-01-02T12:54:18.721Z,11.00
2023-01-02T12:55:45.279Z,11.01
2023-01-02T12:57:02.309Z,11.31
2023-01-02T12:58:14.470Z,11.22
2023-01-02T12:59:30.063Z,10.96
2023-01-02T13:00:48.499Z,11.02
2023-01-02T13:02:23.988Z,11.39
2023-01-02T13:03:22.534Z,11.34
2023-01-02T13:04:29.452Z,11.36
2023-01-02T13:05:32.944Z,11.35
2023-01-02T13:06:43.526Z,11.58
2023-01-02T13:08:13.141Z,11.28
2023-01-02T13:09:25.177Z,11.15
2023-01-02T13:10:25.139Z,11.26
2023-01-02T13:11:30.154Z,11.07
2023-01-02T13:12:30.175Z,11.25
2023-01-02T13:13:33.555Z,11.39
2023-01-02T13:14:35.979Z,11.46
2023-01-02T13:15:36.303Z,11.29
2023-01-02T13:16:35.220Z,11.14
2023-01-02T13:17:40.892Z,11.58
2023-01-02T13:19:00.678Z,11.33
2023-01-02T13:20:15.755Z,11.21
2023-01-02T13:21:32.910Z,11.25
2023-01-02T13:22:48.835Z,11.08
2023-01-02T13:23:48.809Z,11.52
2023-01-02T13:24:46.635Z,11.24
2023-01-02T13:25:49.423Z,10.96
2023-01-02T13:26:46.416Z,10.96
2023-01-02T13:27:45.145Z,10.84
2023-01-02T13:28:56.476Z,10.49
2023-01-02T13:29:53.296Z,10.84
2023-01-02T13:31:05.270Z,11.09
2023-01-02T13:32:11.215Z,10.78
2023-01-02T13:33:29.172Z,10.80
2023-01-02T13:34:29.669Z,10.82
2023-01-02T13:35:26.462Z,10.78
2023-01-02T13:36:38.180Z,10.70
2023-01-02T13:37:35.070Z,10.73
2023-01-02T13:38:36.200Z,10.79
2023-01-02T13:39:46.951Z,10.69
2023-01-02T13:40:43.857Z,10.95
2023-01-02T13:42:10.092Z,10.86
2023-01-02T13:43:14.780Z,10.68
2023-01-02T13:44:11.488Z,10.68